createdAt,value
2018-08-23T00:01:17.398Z,11.23
2018-08-23T00:03:46.886Z,9.90
2018-08-23T00:06:15.807Z,9.57
2018-08-23T00:08:47.693Z,9.03
2018-08-23T00:11:18.940Z,10.27
2018-08-23T00:13:47.661Z,12.90
2018-08-23T00:16:16.646Z,11.77
2018-08-23T00:18:45.363Z,9.50
2018-08-23T00:21:19.129Z,10.17
2018-08-23T00:23:58.778Z,10.93
2018-08-23T00:26:27.692Z,11.17
2018-08-23T00:28:56.324Z,9.90
2018-08-23T00:31:25.251Z,11.30
2018-08-23T00:33:54.086Z,9.17
2018-08-23T00:36:22.734Z,9.83
2018-08-23T00:38:51.325Z,11.20
2018-08-23T00:41:20.491Z,10.57
2018-08-23T00:43:49.242Z,11.03
2018-08-23T00:46:18.378Z,10.87
2018-08-23T00:48:46.944Z,11.00
2018-08-23T00:51:15.997Z,10.53
2018-08-23T00:53:49.944Z,11.60
2018-08-23T00:56:21.081Z,10.20
2018-08-23T00:58:55.102Z,11.03
2018-08-23T01:01:23.992Z,10.20
2018-08-23T01:03:53.292Z,10.53
2018-08-23T01:06:25.610Z,11.20
2018-08-23T01:08:54.398Z,11.90
2018-08-23T01:11:22.948Z,11.90
2018-08-23T01:13:51.855Z,11.57
2018-08-23T01:16:20.833Z,13.13
2018-08-23T01:18:49.374Z,11.57
2018-08-23T01:21:18.602Z,10.83
2018-08-23T01:23:47.344Z,10.40
2018-08-23T01:26:16.199Z,10.40
2018-08-23T01:28:45.127Z,12.60
2018-08-23T01:31:28.403Z,13.57
2018-08-23T01:33:58.607Z,12.70
2018-08-23T01:36:31.856Z,12.00
2018-08-23T01:39:09.102Z,12.30
2018-08-23T01:41:37.879Z,11.70
2018-08-23T01:44:06.886Z,12.10
2018-08-23T01:46:41.417Z,12.17
2018-08-23T01:49:10.115Z,12.20
2018-08-23T01:51:38.892Z,13.07
2018-08-23T01:54:07.631Z,12.00
2018-08-23T01:56:36.356Z,11.90
2018-08-23T01:59:05.094Z,12.97
2018-08-23T02:01:33.958Z,12.27
2018-08-23T02:04:05.386Z,11.63
2018-08-23T02:06:34.479Z,12.83
2018-08-23T02:09:03.519Z,13.53
2018-08-23T02:11:32.058Z,12.67
2018-08-23T02:14:00.611Z,13.83
2018-08-23T02:16:39.313Z,13.40
2018-08-23T02:19:08.037Z,12.50
2018-08-23T02:21:36.908Z,13.37
2018-08-23T02:24:05.848Z,12.80
2018-08-23T02:26:34.674Z,13.37
2018-08-23T02:29:03.443Z,15.23
2018-08-23T02:31:32.487Z,16.17
2018-08-23T02:34:01.004Z,13.27
2018-08-23T02:36:29.611Z,15.73
2018-08-23T02:39:05.537Z,14.73
2018-08-23T02:41:34.096Z,13.87
2018-08-23T02:44:02.966Z,13.83
2018-08-23T02:46:32.917Z,15.70
2018-08-23T02:49:01.491Z,13.00
2018-08-23T02:51:41.437Z,14.63
2018-08-23T02:54:12.900Z,14.10
2018-08-23T02:56:46.700Z,12.60
2018-08-23T02:59:15.279Z,13.20
2018-08-23T03:01:45.663Z,13.63
2018-08-23T03:04:16.008Z,13.63
2018-08-23T03:06:51.041Z,16.60
2018-08-23T03:09:25.543Z,13.90
2018-08-23T03:11:55.363Z,14.50
2018-08-23T03:14:24.878Z,15.23
2018-08-23T03:17:27.913Z,15.30
2018-08-23T03:20:00.774Z,14.57
2018-08-23T03:22:30.245Z,14.33
2018-08-23T03:25:02.570Z,14.50
2018-08-23T03:27:31.914Z,14.90
2018-08-23T03:30:01.384Z,13.73
2018-08-23T03:32:30.137Z,14.50
2018-08-23T03:34:59.418Z,14.77
2018-08-23T03:37:28.485Z,15.80
2018-08-23T03:39:57.796Z,14.90
2018-08-23T03:42:26.938Z,13.77
2018-08-23T03:44:57.205Z,18.83
2018-08-23T03:47:26.464Z,15.33
2018-08-23T03:49:55.207Z,16.03
2018-08-23T03:52:28.436Z,16.27
2018-08-23T03:54:59.321Z,15.17
2018-08-23T03:57:33.304Z,16.23
2018-08-23T04:00:02.625Z,15.00
2018-08-23T04:02:31.760Z,16.37
2018-08-23T04:05:07.793Z,16.67
2018-08-23T04:07:37.699Z,15.43
2018-08-23T04:10:06.840Z,15.27
2018-08-23T04:12:40.287Z,15.23
2018-08-23T04:15:20.531Z,17.77
2018-08-23T04:17:50.634Z,15.30
2018-08-23T04:20:20.201Z,14.73
2018-08-23T04:22:49.078Z,15.50
2018-08-23T04:25:17.974Z,15.90
2018-08-23T04:27:47.127Z,15.63
2018-08-23T04:32:49.790Z,14.83
2018-08-23T04:35:24.593Z,16.57
2018-08-23T04:37:53.166Z,14.57
2018-08-23T04:40:21.731Z,14.53
2018-08-23T04:42:50.249Z,16.90
2018-08-23T04:45:24.020Z,17.40
2018-08-23T04:47:57.780Z,18.70
2018-08-23T04:50:26.792Z,17.03
2018-08-23T04:52:55.544Z,15.70
2018-08-23T04:55:26.252Z,15.50
2018-08-23T04:57:55.551Z,17.47
2018-08-23T05:00:24.354Z,19.20
2018-08-23T05:02:53.109Z,16.00
2018-08-23T05:05:22.344Z,16.53
2018-08-23T05:07:51.055Z,17.37
2018-08-23T05:10:19.896Z,18.37
2018-08-23T05:12:49.083Z,18.23
2018-08-23T05:15:17.731Z,15.43
2018-08-23T05:17:46.628Z,16.53
2018-08-23T05:20:15.325Z,17.60
2018-08-23T05:22:56.091Z,18.90
2018-08-23T05:25:25.776Z,17.93
2018-08-23T05:28:06.796Z,16.77
2018-08-23T05:30:36.029Z,16.37
2018-08-23T05:33:10.628Z,17.70
2018-08-23T05:35:39.296Z,17.07
2018-08-23T05:38:08.788Z,18.87
2018-08-23T05:40:43.594Z,17.13
2018-08-23T05:43:13.754Z,21.10
2018-08-23T05:45:47.414Z,19.40
2018-08-23T05:48:22.262Z,19.87
2018-08-23T05:50:51.208Z,18.37
2018-08-23T05:53:25.356Z,18.43
2018-08-23T05:55:55.968Z,20.23
2018-08-23T05:58:28.097Z,18.30
2018-08-23T06:00:56.986Z,17.63
2018-08-23T06:03:25.603Z,18.43
2018-08-23T06:05:55.405Z,19.10
2018-08-23T06:08:24.395Z,20.40
2018-08-23T06:10:58.449Z,21.70
2018-08-23T06:13:27.504Z,20.93
2018-08-23T06:15:57.245Z,22.67
2018-08-23T06:18:26.716Z,22.10
2018-08-23T06:20:55.755Z,24.23
2018-08-23T06:23:32.353Z,23.50
2018-08-23T06:26:01.931Z,23.27
2018-08-23T06:28:30.988Z,23.00
2018-08-23T06:31:01.979Z,24.37
2018-08-23T06:33:42.784Z,22.53
2018-08-23T06:36:11.459Z,23.30
2018-08-23T06:38:41.216Z,20.77
2018-08-23T06:41:09.909Z,23.87
2018-08-23T06:43:39.103Z,23.17
2018-08-23T06:46:08.341Z,23.97
2018-08-23T06:48:37.031Z,22.27
2018-08-23T06:51:10.104Z,21.33
2018-08-23T06:53:49.522Z,25.03
2018-08-23T06:56:20.020Z,22.30
2018-08-23T06:58:49.153Z,25.07
2018-08-23T07:01:36.458Z,23.70
2018-08-23T07:04:06.604Z,22.73
2018-08-23T07:06:36.345Z,24.60
2018-08-23T07:09:10.048Z,25.70
2018-08-23T07:11:38.669Z,23.13
2018-08-23T07:14:13.597Z,21.83
2018-08-23T07:16:43.342Z,26.70
2018-08-23T07:19:33.425Z,25.40
2018-08-23T07:22:03.080Z,26.07
2018-08-23T07:24:46.082Z,25.80
2018-08-23T07:27:16.135Z,23.00
2018-08-23T07:29:49.134Z,26.13
2018-08-23T07:32:20.066Z,27.47
2018-08-23T07:35:02.591Z,27.93
2018-08-23T07:37:34.626Z,33.03
2018-08-23T07:40:10.686Z,36.20
2018-08-23T07:42:40.429Z,36.13
2018-08-23T07:45:09.714Z,36.00
2018-08-23T07:47:45.970Z,40.63
2018-08-23T07:50:15.074Z,40.80
2018-08-23T07:52:45.768Z,45.77
2018-08-23T07:55:14.698Z,44.43
2018-08-23T07:57:43.760Z,56.80
2018-08-23T08:00:44.958Z,49.17
2018-08-23T08:03:14.956Z,48.73
2018-08-23T08:05:44.869Z,48.83
2018-08-23T08:08:14.183Z,54.53
2018-08-23T08:10:45.232Z,51.50
2018-08-23T08:13:13.980Z,49.37
2018-08-23T08:15:42.839Z,48.30
2018-08-23T08:18:16.730Z,51.47
2018-08-23T08:20:51.692Z,53.23
2018-08-23T08:23:20.607Z,48.27
2018-08-23T08:25:49.378Z,48.80
2018-08-23T08:28:18.869Z,47.17
2018-08-23T08:30:48.669Z,47.63
2018-08-23T08:33:21.388Z,54.03
2018-08-23T08:35:51.092Z,56.50
2018-08-23T08:38:19.804Z,55.00
2018-08-23T08:40:50.931Z,57.70
2018-08-23T08:43:19.609Z,60.83
2018-08-23T08:45:52.344Z,50.73
2018-08-23T08:48:26.330Z,54.23
2018-08-23T08:51:11.505Z,56.98
2018-08-23T08:53:40.378Z,56.40
2018-08-23T08:56:09.423Z,47.20
2018-08-23T08:58:38.283Z,51.90
2018-08-23T09:01:07.495Z,47.10
2018-08-23T09:03:37.650Z,46.13
2018-08-23T09:06:10.776Z,49.58
2018-08-23T09:08:39.948Z,48.30
2018-08-23T09:11:08.513Z,49.10
2018-08-23T09:13:42.457Z,47.23
2018-08-23T09:16:12.160Z,44.05
2018-08-23T09:18:44.128Z,41.55
2018-08-23T09:21:12.746Z,39.70
2018-08-23T09:23:41.674Z,43.38
2018-08-23T09:26:10.574Z,39.10
2018-08-23T09:28:39.334Z,39.15
2018-08-23T09:31:08.118Z,37.80
2018-08-23T09:33:36.740Z,42.27
2018-08-23T09:36:05.425Z,36.28
2018-08-23T09:38:34.013Z,36.23
2018-08-23T09:41:02.769Z,34.08
2018-08-23T09:43:32.741Z,34.48
2018-08-23T09:46:01.479Z,33.05
2018-08-23T09:48:30.031Z,35.17
2018-08-23T09:50:58.665Z,27.05
2018-08-23T09:53:27.237Z,28.55
2018-08-23T09:55:57.002Z,22.07
2018-08-23T09:58:31.341Z,20.48
2018-08-23T10:01:05.610Z,15.53
2018-08-23T10:08:21.912Z,20.17
2018-08-23T10:10:56.047Z,19.57
2018-08-23T10:13:30.232Z,24.35
2018-08-23T10:16:04.061Z,26.75
2018-08-23T10:18:38.095Z,18.27
2018-08-23T10:21:06.716Z,17.60
2018-08-23T10:23:35.660Z,21.27
2018-08-23T10:26:10.068Z,15.53
2018-08-23T10:28:43.900Z,16.67
2018-08-23T10:31:12.628Z,16.87
2018-08-23T10:33:41.395Z,12.73
2018-08-23T10:36:10.004Z,11.43
2018-08-23T10:38:38.717Z,11.20
2018-08-23T10:41:07.680Z,9.58
2018-08-23T10:43:41.538Z,9.30
2018-08-23T10:46:10.343Z,8.95
2018-08-23T10:48:39.173Z,14.05
2018-08-23T10:51:07.942Z,9.68
2018-08-23T10:53:36.487Z,10.98
2018-08-23T10:56:05.451Z,10.82
2018-08-23T10:58:34.067Z,9.75
2018-08-23T11:01:03.012Z,8.60
2018-08-23T11:03:32.633Z,7.47
2018-08-23T11:06:01.318Z,16.67
2018-08-23T11:08:32.755Z,11.55
2018-08-23T11:11:06.613Z,9.05
2018-08-23T11:13:40.692Z,11.28
2018-08-23T11:16:14.560Z,9.18
2018-08-23T11:20:50.321Z,10.43
2018-08-23T11:23:23.177Z,6.75
2018-08-23T11:25:51.973Z,8.03
2018-08-23T11:28:21.242Z,8.00
2018-08-23T11:30:50.363Z,8.80
2018-08-23T11:33:19.598Z,9.70
2018-08-23T11:35:48.577Z,5.80
2018-08-23T11:38:17.524Z,5.95
2018-08-23T11:40:46.370Z,7.40
2018-08-23T11:43:15.277Z,6.28
2018-08-23T11:45:44.131Z,6.85
2018-08-23T11:48:12.832Z,7.58
2018-08-23T11:50:41.496Z,9.68
2018-08-23T11:53:10.187Z,9.50
2018-08-23T11:55:38.780Z,9.25
2018-08-23T11:58:07.875Z,7.60
2018-08-23T12:00:36.531Z,7.05
2018-08-23T12:03:05.583Z,8.55
2018-08-23T12:05:34.663Z,9.78
2018-08-23T12:08:03.384Z,7.40
2018-08-23T12:10:31.987Z,8.05
2018-08-23T12:13:00.994Z,10.20
2018-08-23T12:15:31.586Z,9.83
2018-08-23T12:18:00.625Z,9.88
2018-08-23T12:20:30.086Z,7.97
2018-08-23T12:22:58.853Z,7.80
2018-08-23T12:25:27.636Z,9.70
2018-08-23T12:27:57.712Z,6.60
2018-08-23T12:30:26.394Z,8.40
2018-08-23T12:32:55.268Z,8.75
2018-08-23T12:35:24.112Z,9.05
2018-08-23T12:38:01.773Z,8.10
2018-08-23T12:40:36.652Z,8.50
2018-08-23T12:43:12.552Z,8.53
2018-08-23T12:45:43.227Z,8.58
2018-08-23T12:48:13.073Z,11.08
2018-08-23T12:50:42.833Z,9.80
2018-08-23T12:53:11.674Z,9.23
2018-08-23T12:55:40.633Z,8.55
2018-08-23T12:58:11.337Z,9.50
2018-08-23T13:00:41.584Z,8.23
2018-08-23T13:03:10.567Z,7.85
2018-08-23T13:05:39.626Z,10.68
2018-08-23T13:08:08.345Z,9.08
2018-08-23T13:10:37.437Z,13.13
2018-08-23T13:13:06.410Z,19.37
2018-08-23T13:15:35.914Z,11.85
2018-08-23T13:18:04.942Z,7.33
2018-08-23T13:20:33.470Z,12.70
2018-08-23T13:23:02.176Z,9.23
2018-08-23T13:25:30.908Z,10.78
2018-08-23T13:27:59.498Z,14.98
2018-08-23T13:30:28.074Z,8.83
2018-08-23T13:32:56.980Z,13.00
2018-08-23T13:35:26.058Z,9.90
2018-08-23T13:37:55.439Z,16.45
2018-08-23T13:40:24.039Z,8.78
2018-08-23T13:42:52.621Z,7.17
2018-08-23T13:45:21.421Z,6.62
2018-08-23T13:47:49.971Z,18.82
2018-08-23T13:50:18.535Z,13.32
2018-08-23T13:52:47.508Z,8.55
2018-08-23T13:55:16.773Z,7.65
2018-08-23T13:57:45.846Z,6.83
2018-08-23T14:00:19.872Z,6.95
2018-08-23T14:02:48.488Z,10.13
2018-08-23T14:05:17.778Z,7.90
2018-08-23T14:07:47.186Z,8.40
2018-08-23T14:10:15.877Z,7.85
2018-08-23T14:12:48.393Z,6.47
2018-08-23T14:15:22.551Z,8.60
2018-08-23T14:17:51.168Z,7.65
2018-08-23T14:20:20.059Z,7.40
2018-08-23T14:22:48.849Z,8.45
2018-08-23T14:25:17.401Z,7.28
2018-08-23T14:27:46.188Z,10.03
2018-08-23T14:30:14.749Z,8.90
2018-08-23T14:32:43.593Z,7.50
2018-08-23T14:35:12.788Z,5.75
2018-08-23T14:37:41.690Z,5.80
2018-08-23T14:40:10.556Z,4.78
2018-08-23T14:42:39.036Z,4.10
2018-08-23T14:45:07.932Z,4.87
2018-08-23T14:47:41.832Z,5.53
2018-08-23T14:50:10.820Z,5.45
2018-08-23T14:52:39.709Z,3.50
2018-08-23T14:55:08.839Z,5.08
2018-08-23T14:57:38.111Z,7.12
2018-08-23T15:00:06.724Z,5.15
2018-08-23T15:02:35.731Z,3.70
2018-08-23T15:05:04.642Z,5.40
2018-08-23T15:07:34.037Z,9.53
2018-08-23T15:10:02.844Z,4.78
2018-08-23T15:12:31.689Z,4.55
2018-08-23T15:15:00.462Z,6.00
2018-08-23T15:17:29.106Z,8.83
2018-08-23T15:19:58.616Z,3.42
2018-08-23T15:22:27.275Z,3.80
2018-08-23T15:24:56.397Z,4.87
2018-08-23T15:27:25.377Z,3.35
2018-08-23T15:29:54.094Z,3.45
2018-08-23T15:32:22.827Z,4.10
2018-08-23T15:34:51.772Z,4.87
2018-08-23T15:37:20.883Z,4.17
2018-08-23T15:39:50.401Z,4.08
2018-08-23T15:42:19.033Z,3.12
2018-08-23T15:44:48.221Z,3.05
2018-08-23T15:47:17.156Z,4.42
2018-08-23T15:49:46.209Z,7.20
2018-08-23T15:52:15.166Z,2.70
2018-08-23T15:54:44.148Z,4.53
2018-08-23T15:57:12.669Z,3.25
2018-08-23T15:59:41.249Z,6.05
2018-08-23T16:02:09.940Z,3.20
2018-08-23T16:04:38.750Z,3.02
2018-08-23T16:07:07.536Z,4.03
2018-08-23T16:09:36.857Z,5.17
2018-08-23T16:12:05.983Z,4.50
2018-08-23T16:14:34.596Z,6.03
2018-08-23T16:17:08.637Z,7.58
2018-08-23T16:19:42.560Z,3.37
2018-08-23T16:22:11.302Z,3.45
2018-08-23T16:24:40.469Z,5.35
2018-08-23T16:27:09.398Z,3.42
2018-08-23T16:29:37.964Z,4.22
2018-08-23T16:32:06.804Z,6.03
2018-08-23T16:34:35.718Z,4.80
2018-08-23T16:37:04.589Z,6.22
2018-08-23T16:39:33.791Z,5.42
2018-08-23T16:42:03.217Z,7.28
2018-08-23T16:44:31.827Z,4.28
2018-08-23T16:47:00.714Z,7.65
2018-08-23T16:49:29.370Z,5.03
2018-08-23T16:51:58.459Z,4.70
2018-08-23T16:54:27.079Z,5.67
2018-08-23T16:56:55.823Z,4.00
2018-08-23T16:59:24.624Z,6.17
2018-08-23T17:01:53.393Z,4.62
2018-08-23T17:04:26.153Z,7.90
2018-08-23T17:06:55.140Z,7.78
2018-08-23T17:09:24.063Z,4.80
2018-08-23T17:11:53.117Z,6.72
2018-08-23T17:14:21.919Z,6.15
2018-08-23T17:16:56.117Z,4.20
2018-08-23T17:19:25.264Z,4.60
2018-08-23T17:21:54.333Z,6.87
2018-08-23T17:24:23.219Z,8.88
2018-08-23T17:26:52.174Z,7.45
2018-08-23T17:29:21.574Z,5.05
2018-08-23T17:31:50.543Z,8.25
2018-08-23T17:34:19.373Z,5.78
2018-08-23T17:36:48.070Z,4.60
2018-08-23T17:39:17.009Z,7.25
2018-08-23T17:41:45.759Z,4.95
2018-08-23T17:44:14.312Z,3.92
2018-08-23T17:46:42.974Z,6.53
2018-08-23T17:49:12.646Z,5.22
2018-08-23T17:51:42.005Z,4.00
2018-08-23T17:54:10.853Z,7.12
2018-08-23T17:56:39.846Z,6.30
2018-08-23T17:59:09.011Z,5.00
2018-08-23T18:01:38.078Z,7.05
2018-08-23T18:04:07.037Z,7.12
2018-08-23T18:06:36.267Z,5.45
2018-08-23T18:09:08.108Z,4.95
2018-08-23T18:11:36.875Z,4.67
2018-08-23T18:14:05.749Z,5.92
2018-08-23T18:16:39.555Z,5.50
2018-08-23T18:19:08.460Z,6.35
2018-08-23T18:21:37.756Z,6.33
2018-08-23T18:24:06.710Z,4.58
2018-08-23T18:26:35.319Z,5.03
2018-08-23T18:29:04.047Z,7.70
2018-08-23T18:31:33.463Z,7.12
2018-08-23T18:34:02.279Z,5.37
2018-08-23T18:36:31.467Z,4.97
2018-08-23T18:39:00.209Z,8.00
2018-08-23T18:41:29.388Z,7.55
2018-08-23T18:43:58.254Z,5.28
2018-08-23T18:46:26.921Z,6.60
2018-08-23T18:48:59.649Z,6.17
2018-08-23T18:51:30.176Z,6.42
2018-08-23T18:53:59.768Z,7.67
2018-08-23T18:56:29.936Z,5.45
2018-08-23T18:58:59.399Z,6.50
2018-08-23T19:01:28.433Z,7.72
2018-08-23T19:03:57.329Z,7.42
2018-08-23T19:06:31.626Z,6.53
2018-08-23T19:09:00.797Z,9.13
2018-08-23T19:11:29.760Z,6.42
2018-08-23T19:13:58.415Z,8.08
2018-08-23T19:16:32.558Z,9.50
2018-08-23T19:19:01.451Z,7.83
2018-08-23T19:21:30.412Z,7.47
2018-08-23T19:23:59.394Z,7.53
2018-08-23T19:26:28.328Z,9.38
2018-08-23T19:28:57.208Z,9.40
2018-08-23T19:31:26.192Z,6.42
2018-08-23T19:33:55.225Z,9.58
2018-08-23T19:36:24.373Z,7.20
2018-08-23T19:38:53.660Z,6.20
2018-08-23T19:41:22.283Z,7.83
2018-08-23T19:43:50.975Z,5.43
2018-08-23T19:46:25.323Z,8.07
2018-08-23T19:48:59.399Z,5.10
2018-08-23T19:51:28.537Z,8.10
2018-08-23T19:53:57.783Z,5.57
2018-08-23T19:56:26.420Z,5.87
2018-08-23T19:58:55.370Z,7.47
2018-08-23T20:01:24.258Z,6.50
2018-08-23T20:03:53.092Z,7.93
2018-08-23T20:06:21.788Z,6.90
2018-08-23T20:08:50.916Z,6.07
2018-08-23T20:11:19.607Z,6.10
2018-08-23T20:13:48.487Z,6.83
2018-08-23T20:16:17.150Z,9.50
2018-08-23T20:18:45.895Z,6.33
2018-08-23T20:21:14.689Z,8.00
2018-08-23T20:23:43.421Z,8.07
2018-08-23T20:26:19.704Z,8.47
2018-08-23T20:28:49.388Z,8.47
2018-08-23T20:31:18.305Z,6.03
2018-08-23T20:33:47.412Z,12.40
2018-08-23T20:36:16.239Z,6.10
2018-08-23T20:38:44.800Z,9.17
2018-08-23T20:41:13.868Z,6.53
2018-08-23T20:43:42.667Z,7.73
2018-08-23T20:46:11.676Z,7.57
2018-08-23T20:48:40.524Z,9.97
2018-08-23T20:51:09.282Z,6.67
2018-08-23T20:53:37.943Z,6.73
2018-08-23T20:56:06.780Z,5.83
2018-08-23T20:58:35.798Z,7.23
2018-08-23T21:01:04.583Z,9.83
2018-08-23T21:03:33.144Z,10.13
2018-08-23T21:06:01.725Z,6.90
2018-08-23T21:08:30.790Z,7.40
2018-08-23T21:10:59.466Z,8.53
2018-08-23T21:13:28.298Z,8.40
2018-08-23T21:15:57.305Z,7.10
2018-08-23T21:18:26.210Z,9.40
2018-08-23T21:20:54.825Z,9.43
2018-08-23T21:23:23.592Z,9.60
2018-08-23T21:25:52.286Z,10.27
2018-08-23T21:28:21.109Z,7.87
2018-08-23T21:30:49.915Z,8.50
2018-08-23T21:33:18.799Z,13.47
2018-08-23T21:35:47.505Z,8.47
2018-08-23T21:38:16.234Z,7.83
2018-08-23T21:40:44.975Z,11.10
2018-08-23T21:43:13.821Z,8.20
2018-08-23T21:45:42.347Z,10.63
2018-08-23T21:48:11.191Z,7.83
2018-08-23T21:50:40.099Z,11.00
2018-08-23T21:53:08.906Z,7.53
2018-08-23T21:55:38.904Z,9.37
2018-08-23T21:58:10.459Z,11.13
2018-08-23T22:00:44.281Z,7.70
2018-08-23T22:03:13.979Z,8.33
2018-08-23T22:05:43.079Z,8.60
2018-08-23T22:08:12.360Z,9.90
2018-08-23T22:10:40.973Z,10.27
2018-08-23T22:13:10.043Z,9.43
2018-08-23T22:15:44.248Z,7.37
2018-08-23T22:18:12.860Z,8.37
2018-08-23T22:20:41.410Z,6.83
2018-08-23T22:23:10.787Z,7.60
2018-08-23T22:25:40.045Z,5.50
2018-08-23T22:28:09.555Z,5.40
2018-08-23T22:30:39.220Z,5.30
2018-08-23T22:33:08.489Z,9.17
2018-08-23T22:35:37.171Z,6.87
2018-08-23T22:38:06.592Z,6.43
2018-08-23T22:40:35.287Z,5.00
2018-08-23T22:43:03.851Z,5.20
2018-08-23T22:45:32.400Z,7.43
2018-08-23T22:48:01.064Z,5.03
2018-08-23T22:50:30.118Z,5.10
2018-08-23T22:52:58.708Z,4.23
2018-08-23T22:55:27.419Z,5.20
2018-08-23T22:57:55.944Z,5.87
2018-08-23T23:00:29.581Z,4.33
2018-08-23T23:02:58.174Z,6.63
2018-08-23T23:05:26.929Z,5.20
2018-08-23T23:07:58.793Z,5.63
2018-08-23T23:10:27.508Z,5.47
2018-08-23T23:12:56.082Z,3.73
2018-08-23T23:15:26.044Z,4.57
2018-08-23T23:17:54.940Z,3.70
2018-08-23T23:20:23.570Z,4.20
2018-08-23T23:22:52.405Z,5.07
2018-08-23T23:25:20.925Z,6.93
2018-08-23T23:27:49.804Z,7.43
2018-08-23T23:30:18.380Z,8.23
2018-08-23T23:32:47.045Z,2.50
2018-08-23T23:35:15.796Z,4.30
2018-08-23T23:37:44.391Z,3.07
2018-08-23T23:40:13.066Z,3.60
2018-08-23T23:42:41.632Z,2.87
2018-08-23T23:45:10.236Z,5.37
2018-08-23T23:47:38.821Z,2.03
2018-08-23T23:50:07.809Z,2.80
2018-08-23T23:52:36.835Z,2.87
2018-08-23T23:55:05.416Z,3.20
2018-08-23T23:57:34.066Z,2.60
